createdAt,value
2022-08-31T00:01:57.174Z,72
2022-08-31T00:07:45.018Z,76
2022-08-31T00:13:30.739Z,86
2022-08-31T00:24:51.264Z,66
2022-08-31T00:30:31.437Z,66
2022-08-31T00:36:11.843Z,64
2022-08-31T00:41:51.932Z,78
2022-08-31T00:47:34.713Z,66
2022-08-31T00:53:15.238Z,70
2022-08-31T00:58:56.080Z,76
2022-08-31T01:04:36.323Z,70
2022-08-31T01:10:19.627Z,76
2022-08-31T01:16:00.246Z,66
2022-08-31T01:21:40.558Z,78
2022-08-31T01:27:20.706Z,66
2022-08-31T01:33:00.859Z,72
2022-08-31T01:38:41.144Z,68
2022-08-31T01:44:21.264Z,68
2022-08-31T01:50:01.297Z,72
2022-08-31T01:55:41.213Z,72
2022-08-31T02:01:35.318Z,70
2022-08-31T02:07:15.868Z,66
2022-08-31T02:29:56.829Z,66
2022-08-31T02:35:37.053Z,76
2022-08-31T02:41:17.142Z,72
2022-08-31T02:46:57.198Z,60
2022-08-31T02:52:37.364Z,62
2022-08-31T02:58:24.554Z,72
2022-08-31T03:04:04.963Z,60
2022-08-31T03:09:45.204Z,62
2022-08-31T03:15:25.535Z,68
2022-08-31T03:21:05.770Z,72
2022-08-31T03:26:46.060Z,76
2022-08-31T03:32:26.104Z,68
2022-08-31T03:38:07.524Z,70
2022-08-31T03:57:01.961Z,62
2022-08-31T04:02:50.962Z,76
2022-08-31T04:08:35.109Z,72
2022-08-31T04:14:19.094Z,62
2022-08-31T04:20:09.169Z,70
2022-08-31T04:25:55.436Z,74
2022-08-31T04:31:39.291Z,64
2022-08-31T04:37:20.446Z,62
2022-08-31T04:43:26.051Z,76
2022-08-31T04:49:06.652Z,68
2022-08-31T04:54:46.806Z,64
2022-08-31T05:00:26.927Z,60
2022-08-31T05:06:07.449Z,72
2022-08-31T05:11:47.797Z,58
2022-08-31T05:17:27.929Z,70
2022-08-31T05:23:07.796Z,66
2022-08-31T05:34:28.101Z,72
2022-08-31T05:40:09.998Z,60
2022-08-31T05:45:51.114Z,58
2022-08-31T05:51:41.289Z,60
2022-08-31T05:57:27.615Z,72
2022-08-31T06:03:08.098Z,70
2022-08-31T06:08:51.565Z,60
2022-08-31T06:14:32.288Z,72
2022-08-31T06:20:18.591Z,68
2022-08-31T06:25:58.906Z,64
2022-08-31T06:31:43.066Z,68
2022-08-31T06:37:23.580Z,68
2022-08-31T06:43:03.847Z,66
2022-08-31T06:48:43.992Z,70
2022-08-31T06:54:31.462Z,72
2022-08-31T07:00:12.107Z,62
2022-08-31T07:05:52.436Z,72
2022-08-31T07:17:13.303Z,74
2022-08-31T07:22:53.676Z,56
2022-08-31T07:28:33.746Z,66
2022-08-31T07:34:14.163Z,68
2022-08-31T07:39:59.249Z,62
2022-08-31T07:45:47.816Z,66
2022-08-31T07:51:29.063Z,64
2022-08-31T07:57:10.200Z,66
2022-08-31T08:02:54.934Z,76
2022-08-31T08:13:51.794Z,58
2022-08-31T08:19:34.662Z,78
2022-08-31T08:25:27.358Z,66
2022-08-31T08:31:08.373Z,70
2022-08-31T08:36:49.451Z,86
2022-08-31T08:42:29.850Z,72
2022-08-31T08:48:10.365Z,80
2022-08-31T08:53:50.867Z,72
2022-08-31T08:59:31.165Z,74
2022-08-31T09:05:11.346Z,66
2022-08-31T09:10:51.797Z,80
2022-08-31T09:16:45.437Z,66
2022-08-31T09:22:33.178Z,78
2022-08-31T09:33:53.999Z,18
2022-08-31T09:39:46.870Z,16
2022-08-31T09:45:29.455Z,28
2022-08-31T09:51:10.328Z,26
2022-08-31T09:56:50.726Z,34
2022-08-31T10:02:30.782Z,36
2022-08-31T10:08:19.755Z,22
2022-08-31T10:14:00.722Z,30
2022-08-31T10:19:50.353Z,32
2022-08-31T10:25:30.454Z,48
2022-08-31T10:31:11.074Z,24
2022-08-31T10:36:51.071Z,30
2022-08-31T10:42:31.749Z,36
2022-08-31T10:48:11.908Z,54
2022-08-31T10:54:06.987Z,26
2022-08-31T10:59:47.832Z,20
2022-08-31T11:11:09.677Z,32
2022-08-31T11:16:56.277Z,24
2022-08-31T11:22:39.370Z,12
2022-08-31T11:28:24.510Z,10
2022-08-31T11:34:24.004Z,6
2022-08-31T11:40:06.854Z,2
2022-08-31T11:46:06.154Z,4
2022-08-31T11:51:49.323Z,4
2022-08-31T11:57:40.865Z,2
2022-08-31T12:03:30.055Z,0
2022-08-31T12:09:16.408Z,2
2022-08-31T12:15:02.936Z,6
2022-08-31T12:20:47.320Z,10
2022-08-31T12:26:27.354Z,4
2022-08-31T12:32:17.605Z,8
2022-08-31T12:43:38.450Z,10
2022-08-31T12:49:19.823Z,6
2022-08-31T12:55:00.156Z,8
2022-08-31T13:00:40.855Z,8
2022-08-31T13:06:26.086Z,2
2022-08-31T13:12:09.502Z,12
2022-08-31T13:17:49.895Z,4
2022-08-31T13:23:32.964Z,18
2022-08-31T13:29:15.582Z,6
2022-08-31T13:34:58.578Z,2
2022-08-31T13:40:42.821Z,2
2022-08-31T13:46:45.059Z,4
2022-08-31T13:52:38.053Z,4
2022-08-31T13:58:25.192Z,6
2022-08-31T14:04:12.294Z,10
2022-08-31T14:21:24.760Z,88
2022-08-31T14:27:04.799Z,76
2022-08-31T14:32:44.709Z,92
2022-08-31T14:38:24.960Z,76
2022-08-31T14:44:06.294Z,70
2022-08-31T14:49:46.884Z,76
2022-08-31T14:55:27.029Z,84
2022-08-31T15:01:08.411Z,78
2022-08-31T15:06:48.849Z,84
2022-08-31T15:12:29.162Z,80
2022-08-31T15:18:09.352Z,76
2022-08-31T15:23:49.807Z,84
2022-08-31T15:29:30.882Z,72
2022-08-31T15:35:14.115Z,82
2022-08-31T15:40:55.663Z,84
2022-08-31T15:46:36.239Z,84
2022-08-31T15:52:52.603Z,72
2022-08-31T15:58:33.481Z,72
2022-08-31T16:04:13.730Z,78
2022-08-31T16:15:13.523Z,84
2022-08-31T16:20:58.991Z,82
2022-08-31T16:26:39.172Z,78
2022-08-31T16:32:22.202Z,80
2022-08-31T16:38:02.893Z,80
2022-08-31T16:43:43.316Z,82
2022-08-31T16:49:23.639Z,82
2022-08-31T16:55:04.027Z,76
2022-08-31T17:00:45.225Z,100
2022-08-31T17:06:28.694Z,82
2022-08-31T17:12:11.438Z,82
2022-08-31T17:17:52.074Z,86
2022-08-31T17:23:32.366Z,76
2022-08-31T17:29:15.262Z,76
2022-08-31T17:34:55.523Z,70
2022-08-31T17:40:36.458Z,80
2022-08-31T17:51:59.226Z,70
2022-08-31T17:57:42.697Z,78
2022-08-31T18:03:31.354Z,100
2022-08-31T18:09:17.560Z,78
2022-08-31T18:14:58.029Z,78
2022-08-31T18:20:41.096Z,72
2022-08-31T18:26:21.460Z,72
2022-08-31T18:32:01.852Z,80
2022-08-31T18:37:42.714Z,68
2022-08-31T18:43:23.043Z,92
2022-08-31T18:49:21.130Z,80
2022-08-31T18:55:01.634Z,76
2022-08-31T19:00:42.808Z,78
2022-08-31T19:06:26.333Z,66
2022-08-31T19:12:10.097Z,66
2022-08-31T19:23:30.829Z,68
2022-08-31T19:29:11.333Z,66
2022-08-31T19:34:52.055Z,78
2022-08-31T19:40:40.616Z,70
2022-08-31T19:46:22.036Z,66
2022-08-31T19:52:04.319Z,68
2022-08-31T19:57:46.096Z,68
2022-08-31T20:03:26.843Z,66
2022-08-31T20:09:07.154Z,72
2022-08-31T20:14:47.416Z,70
2022-08-31T20:20:27.845Z,78
2022-08-31T20:26:08.368Z,78
2022-08-31T20:31:49.480Z,66
2022-08-31T20:37:31.147Z,82
2022-08-31T20:43:11.934Z,66
2022-08-31T20:48:52.499Z,76
2022-08-31T20:54:34.482Z,66
2022-08-31T21:00:15.086Z,78
2022-08-31T21:05:55.214Z,72
2022-08-31T21:17:15.466Z,78
2022-08-31T21:22:56.067Z,78
2022-08-31T21:28:36.371Z,64
2022-08-31T21:34:25.328Z,68
2022-08-31T21:40:06.208Z,66
2022-08-31T21:45:47.132Z,76
2022-08-31T21:51:28.599Z,76
2022-08-31T21:57:09.072Z,76
2022-08-31T22:02:50.629Z,72
2022-08-31T22:08:31.914Z,70
2022-08-31T22:14:12.493Z,80
2022-08-31T22:19:52.808Z,66
2022-08-31T22:25:33.899Z,74
2022-08-31T22:31:15.290Z,62
2022-08-31T22:36:57.000Z,72
2022-08-31T22:53:59.952Z,60
2022-08-31T22:59:40.183Z,60
2022-08-31T23:05:20.337Z,70
2022-08-31T23:11:00.809Z,72
2022-08-31T23:16:41.544Z,70
2022-08-31T23:22:25.245Z,72
2022-08-31T23:28:06.978Z,72
2022-08-31T23:33:47.146Z,70
2022-08-31T23:39:27.635Z,72
2022-08-31T23:45:07.969Z,72
2022-08-31T23:50:47.921Z,60
2022-08-31T23:56:28.189Z,72
